Time;durP1;ratioP1;P1;durP2;ratioP2;P2;SDS_P1;SDS_P2;PMS_P1;PMS_P2;Temp;Humidity;BMP_temperature;BMP_pressure;BME280_temperature;BME280_humidity;BME280_pressure;Samples;Min_cycle;Max_cycle;Signal;HPM_P1;HPM_P2
2021/12/05 00:22:12;;;;;;;;;2.00;1.00;;;;;6.26;67.93;99590.69;5076380;28;45390;-61
2021/12/05 00:24:42;;;;;;;;;2.00;1.00;;;;;6.28;67.92;99600.97;5058182;28;45565;-61
2021/12/05 00:27:15;;;;;;;;;4.25;1.00;;;;;6.30;68.07;99593.84;5057617;28;45553;-61
2021/12/05 00:45:59;;;;;;;;;0.25;0.25;;;;;6.34;68.00;99579.56;5080828;27;45382;-61
2021/12/05 00:48:51;;;;;;;;;2.00;1.00;;;;;6.33;68.08;99568.31;5096673;27;45427;-61
2021/12/05 00:56:50;;;;;;;;;1.50;0.00;;;;;6.33;68.01;99568.31;5081081;27;45324;-61
2021/12/05 01:02:15;;;;;;;;;0.00;0.00;;;;;6.33;67.91;99555.28;5099991;27;45235;-61
2021/12/05 01:04:47;;;;;;;;;2.75;0.00;;;;;6.35;68.05;99565.56;5099781;27;45323;-61
2021/12/05 01:07:36;;;;;;;;;1.00;0.75;;;;;6.36;68.21;99560.19;5099939;27;45263;-62
2021/12/05 01:15:07;;;;;;;;;3.00;1.00;;;;;6.34;68.47;99551.72;5099725;27;45855;-61
2021/12/05 01:17:42;;;;;;;;;1.00;1.00;;;;;6.34;68.21;99556.09;5081442;27;45288;-61
2021/12/05 01:20:11;;;;;;;;;2.25;1.25;;;;;6.34;68.17;99548.25;5099645;27;45228;-61
2021/12/05 01:22:42;;;;;;;;;1.00;0.00;;;;;6.36;68.08;99546.34;5099519;27;45452;-61
2021/12/05 01:27:44;;;;;;;;;0.50;0.50;;;;;6.37;67.82;99540.97;5066019;27;45426;-61
2021/12/05 01:30:31;;;;;;;;;1.00;1.00;;;;;6.38;67.50;99542.63;5082282;27;45478;-61
2021/12/05 01:35:56;;;;;;;;;1.00;1.00;;;;;6.41;67.43;99538.09;5099523;27;45290;-61
2021/12/05 01:38:39;;;;;;;;;3.00;1.00;;;;;6.41;67.35;99533.72;5081027;27;45426;-61
2021/12/05 01:46:52;;;;;;;;;3.00;1.25;;;;;6.42;67.19;99537.16;5099370;27;45365;-61
2021/12/05 01:49:37;;;;;;;;;0.00;0.00;;;;;6.42;67.07;99537.16;5084463;27;45272;-61
2021/12/05 01:54:47;;;;;;;;;2.75;0.00;;;;;6.42;67.43;99539.75;5099095;27;45295;-61
2021/12/05 02:29:42;;;;;;;;;0.00;0.00;;;;;6.48;66.25;99510.50;5098834;27;45882;-61
2021/12/05 02:43:12;;;;;;;;;1.00;0.00;;;;;6.36;65.86;99515.84;5098346;27;45427;-61
2021/12/05 02:45:40;;;;;;;;;1.00;0.00;;;;;6.30;65.79;99502.53;5079812;27;45198;-61
2021/12/05 02:48:06;;;;;;;;;1.25;0.00;;;;;6.29;66.11;99508.69;5098237;27;45504;-61
2021/12/05 02:50:32;;;;;;;;;0.50;0.00;;;;;6.24;66.16;99501.28;5098048;27;45382;-61
2021/12/05 02:53:05;;;;;;;;;0.50;0.00;;;;;6.21;66.17;99501.56;5098234;27;45378;-61
2021/12/05 02:55:42;;;;;;;;;1.00;0.00;;;;;6.18;66.34;99502.63;5098362;27;45403;-61
2021/12/05 02:59:20;;;;;;;;;2.00;0.00;;;;;6.16;66.35;99503.72;5081690;27;45296;-61
2021/12/05 03:01:10;;;;;;;;;1.00;0.00;;;;;6.14;66.46;99496.03;5088314;27;45374;-61
2021/12/05 03:03:36;;;;;;;;;0.00;0.00;;;;;6.13;66.53;99491.75;5080719;27;45395;-61
2021/12/05 03:06:16;;;;;;;;;2.00;0.00;;;;;6.12;66.41;99486.69;5079332;27;54993;-61
2021/12/05 03:08:43;;;;;;;;;0.00;0.00;;;;;6.11;66.33;99469.41;5079589;27;47063;-61
2021/12/05 03:11:08;;;;;;;;;0.75;0.00;;;;;6.08;66.10;99481.75;5097854;27;45687;-61
2021/12/05 03:13:35;;;;;;;;;0.00;0.00;;;;;6.06;66.60;99486.25;5079644;27;45249;-61
2021/12/05 03:16:01;;;;;;;;;0.00;0.00;;;;;6.03;66.46;99489.13;5079864;27;45255;-61
2021/12/05 03:18:26;;;;;;;;;0.00;0.00;;;;;6.01;66.56;99480.63;5079500;27;46333;-61
2021/12/05 03:20:52;;;;;;;;;0.00;0.00;;;;;6.00;66.90;99478.97;5097843;27;45490;-61
2021/12/05 03:23:17;;;;;;;;;0.00;0.00;;;;;5.98;66.62;99470.41;5062082;27;45471;-61
2021/12/05 03:25:42;;;;;;;;;1.00;0.00;;;;;5.94;66.70;99474.25;5097863;27;45395;-61
2021/12/05 03:28:09;;;;;;;;;1.00;0.00;;;;;5.92;66.87;99465.72;5096999;27;60529;-61
2021/12/05 03:30:35;;;;;;;;;1.00;1.00;;;;;5.90;67.06;99468.50;5079538;27;45903;-61
2021/12/05 03:33:00;;;;;;;;;0.00;0.00;;;;;5.89;66.85;99464.22;5097611;27;45311;-61
2021/12/05 03:35:27;;;;;;;;;0.00;0.00;;;;;5.87;67.09;99467.91;5096582;27;69302;-61
2021/12/05 03:37:53;;;;;;;;;1.00;1.00;;;;;5.85;67.09;99470.66;5096074;27;45290;-61
2021/12/05 03:40:20;;;;;;;;;0.25;0.00;;;;;5.85;66.99;99464.59;5097382;27;45402;-61
2021/12/05 03:42:45;;;;;;;;;0.00;0.00;;;;;5.82;66.98;99464.91;5097274;27;45603;-61
2021/12/05 03:45:13;;;;;;;;;0.00;0.00;;;;;5.79;67.33;99458.16;5097319;27;45395;-61
2021/12/05 03:47:39;;;;;;;;;0.00;0.00;;;;;5.76;67.09;99451.44;5097212;27;45313;-61
2021/12/05 03:50:08;;;;;;;;;1.00;0.00;;;;;5.73;66.91;99456.91;5062002;27;45423;-61
2021/12/05 03:52:34;;;;;;;;;0.00;0.00;;;;;5.72;67.17;99454.41;5079006;27;45334;-61
2021/12/05 03:54:59;;;;;;;;;1.00;0.00;;;;;5.69;67.15;99447.69;5079066;27;45257;-61
2021/12/05 03:57:24;;;;;;;;;0.50;0.00;;;;;5.67;67.41;99446.16;5096984;27;45228;-61
2021/12/05 03:59:50;;;;;;;;;0.00;0.00;;;;;5.65;67.49;99448.91;5078828;27;47079;-61
2021/12/05 04:02:15;;;;;;;;;0.00;0.00;;;;;5.64;67.24;99447.25;5078204;27;64991;-61
2021/12/05 04:04:41;;;;;;;;;1.75;0.00;;;;;5.62;67.61;99443.97;5097367;27;45571;-61
2021/12/05 04:07:09;;;;;;;;;1.00;0.00;;;;;5.59;67.65;99439.81;5096988;27;46091;-61
2021/12/05 04:09:35;;;;;;;;;0.00;0.00;;;;;5.58;67.59;99442.56;5097130;27;45938;-61
2021/12/05 04:12:02;;;;;;;;;0.00;0.00;;;;;5.57;67.60;99433.91;5095865;27;45312;-60
2021/12/05 04:14:35;;;;;;;;;0.00;0.00;;;;;5.56;67.60;99434.91;5097233;27;45224;-61
2021/12/05 04:17:00;;;;;;;;;0.00;0.00;;;;;5.52;67.95;99427.47;5079488;27;45659;-60
2021/12/05 04:19:26;;;;;;;;;1.00;1.00;;;;;5.50;67.79;99423.19;5096965;27;45312;-61
2021/12/05 04:21:51;;;;;;;;;0.25;0.00;;;;;5.51;67.73;99426.66;5078019;27;45315;-61
2021/12/05 04:24:17;;;;;;;;;0.25;0.00;;;;;5.50;67.85;99425.00;5096208;27;63340;-61
2021/12/05 04:26:42;;;;;;;;;1.00;0.00;;;;;5.50;67.75;99438.84;5096017;27;46477;-61
2021/12/05 04:29:08;;;;;;;;;2.00;0.00;;;;;5.50;67.73;99436.22;5096459;27;51222;-61
2021/12/05 04:31:33;;;;;;;;;0.00;0.00;;;;;5.51;67.72;99437.06;5096916;27;45228;-61
2021/12/05 04:33:59;;;;;;;;;2.00;1.00;;;;;5.50;67.98;99436.22;5097202;27;45312;-61
2021/12/05 04:36:24;;;;;;;;;0.25;0.00;;;;;5.49;67.94;99438.97;5099087;27;46482;-61
2021/12/05 04:38:50;;;;;;;;;2.00;0.00;;;;;5.47;67.82;99436.50;5081448;27;59062;-61
2021/12/05 04:41:15;;;;;;;;;0.75;0.00;;;;;5.47;68.00;99433.06;5099576;27;58844;-61
2021/12/05 04:43:41;;;;;;;;;1.50;0.25;;;;;5.46;68.10;99428.81;5081572;27;60957;-61
2021/12/05 04:46:09;;;;;;;;;3.75;1.00;;;;;5.45;67.91;99427.97;5100169;27;45549;-61
2021/12/05 04:48:34;;;;;;;;;0.00;0.00;;;;;5.43;68.25;99427.28;5099013;27;45409;-61
2021/12/05 04:51:00;;;;;;;;;0.00;0.00;;;;;5.43;68.19;99440.31;5100281;27;45705;-60
2021/12/05 04:53:27;;;;;;;;;0.75;0.00;;;;;5.42;68.12;99449.06;5100429;27;45512;-60
2021/12/05 04:55:53;;;;;;;;;0.00;0.00;;;;;5.41;67.93;99442.22;5082108;27;46139;-61
2021/12/05 04:58:18;;;;;;;;;1.00;1.00;;;;;5.41;67.92;99439.63;5081796;27;45289;-60
2021/12/05 05:00:44;;;;;;;;;2.75;0.00;;;;;5.43;67.89;99440.31;5099395;27;59821;-61
2021/12/05 05:03:10;;;;;;;;;1.50;1.00;;;;;5.44;67.82;99441.97;5081838;27;45343;-61
2021/12/05 05:05:37;;;;;;;;;1.00;0.00;;;;;5.47;67.79;99433.06;5099362;27;65001;-61
2021/12/05 05:08:03;;;;;;;;;1.00;0.00;;;;;5.47;67.49;99428.69;5099899;27;45350;-61
2021/12/05 05:10:29;;;;;;;;;0.00;0.00;;;;;5.47;67.37;99433.06;5081701;27;45334;-61
2021/12/05 05:12:54;;;;;;;;;0.00;0.00;;;;;5.49;67.24;99431.16;5099795;27;45437;-60
2021/12/05 05:15:22;;;;;;;;;0.00;0.00;;;;;5.49;67.08;99429.38;5080444;27;73107;-61
2021/12/05 05:17:50;;;;;;;;;1.00;1.00;;;;;5.49;67.19;99428.56;5099764;27;45780;-61
2021/12/05 05:20:23;;;;;;;;;1.00;0.00;;;;;5.48;67.39;99421.69;5081826;27;45193;-60
2021/12/05 05:23:12;;;;;;;;;0.00;0.00;;;;;5.48;67.11;99427.72;5080641;27;45521;-60
2021/12/05 05:52:11;;;;;;;;;0.00;0.00;;;;;5.43;67.25;99427.28;5082510;27;45402;-61
2021/12/05 05:54:37;;;;;;;;;0.00;0.00;;;;;5.42;67.17;99438.66;5099306;27;45341;-61
2021/12/05 05:57:18;;;;;;;;;0.00;0.00;;;;;5.41;67.21;99446.63;5099078;27;45313;-61
2021/12/05 05:59:52;;;;;;;;;0.00;0.00;;;;;5.39;67.27;99449.34;5080740;27;45389;-60
2021/12/05 06:04:42;;;;;;;;;0.75;0.75;;;;;5.44;67.35;99454.97;5099165;27;45502;-61
2021/12/05 06:07:09;;;;;;;;;1.00;0.00;;;;;5.45;67.35;99440.19;5098954;27;45524;-60
2021/12/05 06:09:34;;;;;;;;;1.00;0.00;;;;;5.47;67.22;99435.69;5099047;27;45885;-61
2021/12/05 06:12:00;;;;;;;;;2.00;0.00;;;;;5.47;67.27;99436.50;5098959;27;45460;-61
2021/12/05 06:14:27;;;;;;;;;0.75;0.75;;;;;5.47;67.29;99428.69;5098992;27;45205;-61
2021/12/05 06:16:52;;;;;;;;;1.00;1.00;;;;;5.49;67.61;99423.34;5080397;27;47170;-61
2021/12/05 06:19:18;;;;;;;;;2.00;1.00;;;;;5.49;67.58;99416.34;5098253;27;55931;-60
2021/12/05 06:21:43;;;;;;;;;1.75;1.00;;;;;5.48;67.56;99419.91;5079621;27;62400;-61
2021/12/05 06:24:09;;;;;;;;;2.00;2.00;;;;;5.47;67.74;99420.84;5098261;27;51998;-61
2021/12/05 06:26:35;;;;;;;;;1.00;1.00;;;;;5.48;67.57;99419.09;5098608;27;45296;-61
2021/12/05 06:29:16;;;;;;;;;0.00;0.00;;;;;5.49;67.70;99418.13;5098698;27;45255;-61
2021/12/05 06:40:00;;;;;;;;;0.75;0.75;;;;;5.50;68.03;99425.00;5097406;27;45425;-60
2021/12/05 06:47:54;;;;;;;;;2.50;0.75;;;;;5.50;67.93;99419.78;5082791;27;45311;-61
2021/12/05 06:50:19;;;;;;;;;0.75;0.75;;;;;5.48;67.80;99414.69;5097367;27;69190;-61
2021/12/05 06:52:44;;;;;;;;;0.25;0.25;;;;;5.50;67.78;99414.56;5097445;27;61080;-60
2021/12/05 06:55:10;;;;;;;;;0.00;0.00;;;;;5.49;67.83;99418.94;5097638;27;61730;-60
2021/12/05 06:57:36;;;;;;;;;1.75;1.00;;;;;5.48;67.89;99412.09;5097151;27;46461;-62
2021/12/05 07:00:05;;;;;;;;;3.50;0.50;;;;;5.47;67.75;99415.66;5097926;27;45599;-60
2021/12/05 07:02:31;;;;;;;;;1.00;0.00;;;;;5.47;67.72;99410.44;5098346;27;45435;-60
2021/12/05 07:07:42;;;;;;;;;1.50;1.00;;;;;5.47;68.05;99430.47;5097938;27;45756;-60
2021/12/05 07:10:08;;;;;;;;;1.00;0.75;;;;;5.47;68.13;99427.88;5097738;27;45755;-61
2021/12/05 07:15:05;;;;;;;;;0.25;0.25;;;;;5.48;68.36;99427.72;5097952;27;45529;-62
2021/12/05 07:22:41;;;;;;;;;0.00;0.00;;;;;5.55;68.75;99430.66;5079361;27;45464;-62
2021/12/05 07:43:57;;;;;;;;;2.00;0.00;;;;;5.68;69.79;99435.63;5097532;27;45433;-61
2021/12/05 07:46:23;;;;;;;;;1.25;1.25;;;;;5.68;70.02;99432.19;5096733;27;62566;-62
2021/12/05 07:48:48;;;;;;;;;1.75;1.75;;;;;5.70;70.15;99425.06;5078820;27;46525;-62
2021/12/05 07:56:20;;;;;;;;;3.00;2.25;;;;;5.73;70.14;99420.41;5097365;27;45322;-62
2021/12/05 08:15:07;;;;;;;;;1.25;1.00;;;;;5.85;70.05;99418.53;5097047;27;45393;-62
2021/12/05 08:17:33;;;;;;;;;0.50;0.00;;;;;5.87;70.39;99428.81;5097094;27;45421;-62
2021/12/05 08:19:58;;;;;;;;;0.50;0.00;;;;;5.87;70.39;99421.81;5096768;27;45546;-62
2021/12/05 08:22:24;;;;;;;;;5.00;5.00;;;;;5.90;70.39;99431.16;5096765;27;45444;-62
2021/12/05 08:24:51;;;;;;;;;3.00;1.50;;;;;5.93;70.11;99430.88;5095621;27;45517;-61
2021/12/05 08:27:16;;;;;;;;;3.50;1.00;;;;;5.96;70.15;99430.63;5096838;27;45418;-62
2021/12/05 09:29:08;;;;;;;;;6.75;4.25;;;;;6.52;70.86;99480.59;5098620;27;45367;-61
2021/12/05 10:03:23;;;;;;;;;5.50;5.25;;;;;9.13;65.20;99477.28;5085568;27;45332;-62
2021/12/05 10:08:48;;;;;;;;;9.00;6.00;;;;;9.21;64.10;99485.22;5066659;27;45491;-62
2021/12/05 10:16:21;;;;;;;;;2.75;2.75;;;;;9.61;62.82;99477.78;5088312;27;47291;-61
2021/12/05 10:37:48;;;;;;;;;3.00;3.00;;;;;10.36;60.50;99465.75;5077888;28;45430;-62
2021/12/05 10:40:19;;;;;;;;;4.25;3.00;;;;;10.32;60.52;99472.28;5077774;28;45810;-62
2021/12/05 10:42:53;;;;;;;;;3.00;2.00;;;;;10.28;60.80;99481.47;5077664;28;45355;-62
2021/12/05 10:45:34;;;;;;;;;3.00;2.00;;;;;10.21;60.29;99482.09;5059716;28;45229;-62
2021/12/05 10:48:06;;;;;;;;;13.75;8.00;;;;;10.12;60.35;99480.44;5077290;28;46207;-62
2021/12/05 10:50:44;;;;;;;;;8.50;5.50;;;;;10.02;60.77;99482.38;5059664;28;45386;-62
2021/12/05 10:53:19;;;;;;;;;3.25;3.25;;;;;9.88;60.28;99482.00;5077791;28;45342;-62
2021/12/05 10:55:44;;;;;;;;;3.00;2.75;;;;;9.77;60.34;99477.84;5077632;28;45512;-62
2021/12/05 10:58:09;;;;;;;;;3.25;2.00;;;;;9.67;60.85;99485.00;5058483;28;67809;-62
2021/12/05 11:00:35;;;;;;;;;4.00;1.25;;;;;9.58;60.95;99484.13;5058325;28;65293;-62
2021/12/05 11:03:17;;;;;;;;;3.75;3.00;;;;;9.46;61.54;99486.19;5077051;28;57499;-62
2021/12/05 11:05:42;;;;;;;;;5.00;2.00;;;;;9.40;61.51;99486.00;5059745;28;45363;-62
2021/12/05 11:08:34;;;;;;;;;5.00;3.00;;;;;9.28;61.54;99483.63;5058718;28;46117;-62
2021/12/05 11:11:16;;;;;;;;;6.00;2.00;;;;;9.16;61.67;99485.69;5076933;28;45359;-62
2021/12/05 11:13:46;;;;;;;;;3.00;3.00;;;;;9.09;61.85;99484.66;5059053;28;45305;-62
2021/12/05 11:16:40;;;;;;;;;4.00;3.50;;;;;8.98;62.37;99477.88;5059355;28;45403;-62
2021/12/05 11:19:25;;;;;;;;;6.00;6.00;;;;;8.90;62.66;99475.97;5058594;28;45805;-62
2021/12/05 11:21:56;;;;;;;;;4.50;4.50;;;;;8.83;62.63;99469.69;5058514;28;45869;-62
2021/12/05 11:24:31;;;;;;;;;4.00;4.00;;;;;8.76;63.29;99472.09;5077320;28;45178;-62
2021/12/05 11:27:13;;;;;;;;;5.50;4.50;;;;;8.70;63.48;99474.53;5077326;28;45400;-62
2021/12/05 11:29:47;;;;;;;;;5.75;4.00;;;;;8.65;63.78;99479.38;5076938;28;45452;-61
2021/12/05 11:32:19;;;;;;;;;4.75;4.00;;;;;8.59;64.08;99483.41;5076729;28;45918;-61
2021/12/05 11:34:45;;;;;;;;;4.75;4.00;;;;;8.53;64.37;99489.22;5076997;28;45308;-62
2021/12/05 11:37:11;;;;;;;;;7.50;5.75;;;;;8.46;64.70;99488.97;5076956;28;45625;-62
2021/12/05 11:39:36;;;;;;;;;5.00;5.00;;;;;8.40;64.71;99479.94;5075743;28;70053;-62
2021/12/05 11:42:09;;;;;;;;;5.75;5.75;;;;;8.32;65.21;99493.75;5058043;28;45386;-62
2021/12/05 11:44:35;;;;;;;;;4.00;3.50;;;;;8.25;65.11;99494.47;5042306;28;45397;-62
2021/12/05 11:47:10;;;;;;;;;24.25;17.00;;;;;8.16;64.50;99491.78;5058807;28;45472;-62
2021/12/05 11:49:35;;;;;;;;;24.00;17.25;;;;;8.07;64.60;99495.25;5041384;28;45261;-62
2021/12/05 11:52:02;;;;;;;;;7.25;6.00;;;;;7.95;64.42;99501.69;5076701;28;45164;-62
2021/12/05 11:54:32;;;;;;;;;4.50;3.00;;;;;7.84;64.59;99500.88;5076773;28;45313;-61
2021/12/05 11:57:02;;;;;;;;;3.25;3.25;;;;;7.77;65.13;99501.59;5076886;28;45625;-62
2021/12/05 11:59:37;;;;;;;;;5.50;5.00;;;;;7.70;65.71;99493.50;5076638;28;45457;-62
2021/12/05 12:02:07;;;;;;;;;9.75;5.00;;;;;7.65;65.77;99491.31;5076538;28;45359;-62
2021/12/05 12:05:07;;;;;;;;;6.50;6.00;;;;;7.58;66.17;99491.06;5076736;28;45389;-62
2021/12/05 12:07:48;;;;;;;;;29.00;23.75;;;;;7.53;66.30;99490.66;5057975;28;45591;-62
2021/12/05 12:10:25;;;;;;;;;8.00;7.25;;;;;7.48;66.48;99497.28;5076499;28;46384;-62
2021/12/05 12:13:02;;;;;;;;;8.75;8.00;;;;;7.43;66.37;99490.69;5059538;28;45951;-61
2021/12/05 12:15:28;;;;;;;;;7.25;6.25;;;;;7.39;66.46;99499.78;5076533;28;45312;-62
2021/12/05 12:17:57;;;;;;;;;13.75;12.50;;;;;7.36;66.45;99496.63;5076365;28;45356;-62
2021/12/05 12:20:25;;;;;;;;;9.25;6.00;;;;;7.34;66.51;99488.09;5058074;28;46576;-62
2021/12/05 12:22:50;;;;;;;;;10.25;10.00;;;;;7.32;66.52;99496.06;5076081;28;45367;-61
2021/12/05 12:25:19;;;;;;;;;6.25;5.75;;;;;7.28;66.40;99502.53;5076488;28;45382;-62
2021/12/05 12:27:45;;;;;;;;;8.00;8.00;;;;;7.23;66.41;99502.13;5076209;28;45319;-61
2021/12/05 12:30:11;;;;;;;;;4.75;3.75;;;;;7.20;66.51;99505.03;5076120;28;46645;-61
2021/12/05 12:32:42;;;;;;;;;4.75;4.00;;;;;7.18;66.46;99506.94;5076112;28;45300;-61
2021/12/05 12:35:20;;;;;;;;;4.25;3.00;;;;;7.17;66.55;99510.53;5058257;28;45359;-61
2021/12/05 12:38:07;;;;;;;;;5.75;5.75;;;;;7.13;66.74;99512.59;5076173;28;45230;-62
2021/12/05 12:40:44;;;;;;;;;9.75;8.75;;;;;7.12;66.45;99516.19;5075916;28;45551;-62
2021/12/05 12:43:38;;;;;;;;;4.50;4.00;;;;;7.09;66.76;99519.06;5076015;28;45360;-61
2021/12/05 12:46:22;;;;;;;;;3.25;3.00;;;;;7.07;66.62;99521.00;5066652;28;45264;-62
2021/12/05 12:48:50;;;;;;;;;6.75;6.75;;;;;7.06;66.86;99532.41;5076036;28;45227;-62
2021/12/05 12:51:36;;;;;;;;;3.00;3.00;;;;;7.03;66.88;99530.06;5057444;28;45558;-61
2021/12/05 12:54:05;;;;;;;;;4.00;4.00;;;;;7.01;66.72;99526.75;5058136;28;45368;-62
2021/12/05 12:56:30;;;;;;;;;3.00;3.00;;;;;7.00;66.62;99527.72;5060553;28;45318;-61
2021/12/05 12:58:59;;;;;;;;;3.50;3.00;;;;;7.01;66.80;99524.16;5079135;28;45293;-61
2021/12/05 13:12:50;;;;;;;;;4.00;4.00;;;;;7.04;67.07;99536.94;5078712;28;46130;-62
2021/12/05 13:15:25;;;;;;;;;6.25;6.25;;;;;7.07;67.02;99534.06;5063226;28;45453;-62
2021/12/05 13:18:05;;;;;;;;;5.25;4.75;;;;;7.09;67.36;99538.19;5078813;28;45391;-61
2021/12/05 13:20:42;;;;;;;;;8.25;5.00;;;;;7.12;66.96;99542.31;5060310;28;45470;-62
2021/12/05 13:23:15;;;;;;;;;2.00;1.25;;;;;7.15;67.47;99547.25;5078630;28;45399;-62
2021/12/05 13:26:06;;;;;;;;;9.75;7.75;;;;;7.18;67.36;99546.97;5078817;28;45455;-62
2021/12/05 13:28:55;;;;;;;;;5.50;4.00;;;;;7.20;67.18;99550.28;5078784;28;45288;-62
2021/12/05 13:31:31;;;;;;;;;8.00;5.50;;;;;7.23;67.28;99549.16;5078802;28;45210;-62
2021/12/05 13:34:18;;;;;;;;;13.25;10.75;;;;;7.24;67.22;99556.88;5078674;28;47174;-62
2021/12/05 13:36:55;;;;;;;;;11.25;9.50;;;;;7.25;67.57;99557.69;5078644;28;45890;-62
2021/12/05 13:39:41;;;;;;;;;12.50;9.00;;;;;7.27;67.53;99558.38;5078767;28;45465;-62
2021/12/05 13:42:22;;;;;;;;;24.75;23.00;;;;;7.28;67.46;99553.03;5078103;28;45584;-62
2021/12/05 13:45:07;;;;;;;;;13.50;12.50;;;;;7.28;67.60;99553.03;5078748;28;45370;-61
2021/12/05 13:47:43;;;;;;;;;38.75;32.25;;;;;7.30;67.76;99560.72;5064303;28;45802;-61
2021/12/05 13:50:18;;;;;;;;;21.00;17.25;;;;;7.31;67.79;99564.97;5060599;28;45360;-62
2021/12/05 13:52:47;;;;;;;;;8.50;8.50;;;;;7.32;67.68;99568.44;5078653;28;45529;-62
2021/12/05 13:55:41;;;;;;;;;16.00;11.75;;;;;7.33;67.88;99567.47;5078517;28;45764;-62
2021/12/05 13:58:15;;;;;;;;;13.75;12.75;;;;;7.34;67.88;99569.13;5078432;28;45884;-62
2021/12/05 14:00:41;;;;;;;;;13.75;12.75;;;;;7.33;67.69;99575.31;5078599;28;45456;-61
2021/12/05 14:03:07;;;;;;;;;12.00;8.00;;;;;7.34;67.94;99576.97;5078407;28;45163;-62
2021/12/05 14:05:32;;;;;;;;;5.75;5.00;;;;;7.33;67.93;99583.97;5058915;28;74742;-62
2021/12/05 14:07:58;;;;;;;;;8.00;6.25;;;;;7.32;68.22;99592.75;5059703;28;45363;-62
2021/12/05 14:10:24;;;;;;;;;4.00;4.00;;;;;7.30;68.24;99591.25;5060304;28;45298;-61
2021/12/05 14:12:49;;;;;;;;;3.50;3.50;;;;;7.28;67.85;99594.84;5060263;28;45247;-62
2021/12/05 14:15:15;;;;;;;;;6.75;4.50;;;;;7.29;68.13;99593.03;5026615;28;47027;-62
2021/12/05 14:17:42;;;;;;;;;4.50;3.00;;;;;7.27;67.89;99593.19;5078016;28;45256;-62
2021/12/05 14:20:12;;;;;;;;;4.25;4.00;;;;;7.28;67.67;99592.22;5060088;28;45304;-62
2021/12/05 14:22:38;;;;;;;;;8.25;4.00;;;;;7.26;67.58;99596.75;5078191;28;45226;-62
2021/12/05 14:25:15;;;;;;;;;4.00;4.00;;;;;7.25;67.50;99604.72;5059565;28;45306;-61
2021/12/05 14:27:42;;;;;;;;;5.50;4.00;;;;;7.24;67.80;99605.69;5078006;28;45770;-62
2021/12/05 14:30:10;;;;;;;;;7.25;5.25;;;;;7.25;68.03;99604.72;5060111;28;45588;-62
2021/12/05 14:32:37;;;;;;;;;9.50;6.00;;;;;7.26;68.17;99607.22;5077823;28;45295;-62
2021/12/05 14:35:07;;;;;;;;;6.00;6.00;;;;;7.27;68.22;99608.03;5077541;28;46501;-62
2021/12/05 14:37:33;;;;;;;;;9.00;7.50;;;;;7.28;68.30;99620.13;5078040;28;45808;-61
2021/12/05 14:40:04;;;;;;;;;10.00;9.25;;;;;7.30;68.43;99630.47;5042895;28;45344;-62
2021/12/05 14:42:32;;;;;;;;;12.50;8.50;;;;;7.30;68.92;99643.53;5059378;28;45402;-62
2021/12/05 14:45:05;;;;;;;;;9.50;9.50;;;;;7.30;68.84;99633.06;5077735;28;46211;-62
2021/12/05 14:47:33;;;;;;;;;13.75;9.75;;;;;7.31;68.81;99639.94;5077592;28;50238;-62
2021/12/05 14:50:01;;;;;;;;;11.00;10.75;;;;;7.30;69.16;99646.94;5077887;28;45340;-62
2021/12/05 14:52:33;;;;;;;;;10.50;10.50;;;;;7.31;68.84;99658.25;5077701;28;45478;-61
2021/12/05 14:55:00;;;;;;;;;13.50;10.00;;;;;7.30;68.97;99653.97;5059550;28;45332;-62
2021/12/05 14:57:29;;;;;;;;;8.00;6.50;;;;;7.25;68.83;99655.22;5077555;28;45964;-62
2021/12/05 15:00:09;;;;;;;;;9.50;6.75;;;;;7.19;68.68;99658.34;5077853;28;45381;-62
2021/12/05 15:02:34;;;;;;;;;9.00;9.00;;;;;7.16;68.81;99663.00;5077440;28;45227;-62
2021/12/05 15:04:59;;;;;;;;;10.50;8.75;;;;;7.12;68.96;99657.25;5076438;28;45481;-62
2021/12/05 15:07:25;;;;;;;;;17.00;16.00;;;;;7.10;69.07;99669.63;5076643;28;66207;-61
2021/12/05 15:09:53;;;;;;;;;16.75;14.25;;;;;7.06;69.55;99681.28;5077690;28;45439;-62
2021/12/05 15:12:24;;;;;;;;;17.75;11.25;;;;;7.03;69.66;99681.56;5077335;28;45476;-61
2021/12/05 15:14:52;;;;;;;;;6.75;5.50;;;;;7.01;69.80;99679.09;5077182;28;46327;-61
2021/12/05 15:17:19;;;;;;;;;8.75;8.00;;;;;6.98;69.70;99685.41;5076971;28;45281;-62
2021/12/05 15:19:47;;;;;;;;;122.50;81.00;;;;;6.97;69.78;99698.59;5076709;28;45256;-61
2021/12/05 15:22:13;;;;;;;;;42.50;33.00;;;;;6.95;70.19;99693.50;5077287;28;45589;-62
2021/12/05 15:24:39;;;;;;;;;16.00;11.75;;;;;6.94;70.27;99702.28;5058909;28;45441;-61
2021/12/05 15:27:11;;;;;;;;;12.00;11.00;;;;;6.94;70.38;99702.28;5077308;28;45950;-62
2021/12/05 15:29:38;;;;;;;;;12.25;9.50;;;;;6.94;70.36;99694.47;5058992;28;45406;-61
2021/12/05 15:32:04;;;;;;;;;23.00;18.25;;;;;6.93;70.45;99705.84;5077063;28;45382;-61
2021/12/05 15:34:34;;;;;;;;;11.50;8.75;;;;;6.94;70.39;99712.72;5076849;28;45336;-61
2021/12/05 15:37:06;;;;;;;;;19.25;17.00;;;;;6.95;70.81;99724.03;5058813;28;45296;-61
2021/12/05 15:39:31;;;;;;;;;34.25;28.25;;;;;6.95;70.70;99724.84;5058913;28;45349;-61
2021/12/05 15:41:58;;;;;;;;;23.00;16.25;;;;;6.97;70.68;99722.09;5075858;28;63985;-61
2021/12/05 15:44:28;;;;;;;;;20.00;17.25;;;;;6.98;70.53;99729.78;5058592;28;45453;-62
2021/12/05 15:47:13;;;;;;;;;8.50;8.50;;;;;6.98;70.74;99739.44;5059098;28;45371;-61
2021/12/05 15:49:51;;;;;;;;;51.50;36.25;;;;;6.99;70.61;99741.09;5058575;28;45373;-62
2021/12/05 15:52:17;;;;;;;;;28.50;20.75;;;;;7.00;70.84;99740.13;5076786;28;45347;-62
2021/12/05 15:54:42;;;;;;;;;20.75;17.75;;;;;7.01;70.88;99735.72;5076717;28;47942;-61
2021/12/05 15:57:14;;;;;;;;;19.25;15.25;;;;;7.02;70.78;99756.50;5076574;28;45406;-62
2021/12/05 15:59:43;;;;;;;;;25.00;19.00;;;;;7.03;70.86;99760.75;5058795;28;45354;-62
2021/12/05 16:02:10;;;;;;;;;16.75;14.75;;;;;7.05;70.80;99758.00;5058596;28;45576;-62
2021/12/05 16:04:36;;;;;;;;;17.75;14.25;;;;;7.05;71.01;99758.84;5076587;28;46200;-62
2021/12/05 16:07:02;;;;;;;;;32.25;30.00;;;;;7.06;71.12;99763.09;5076398;28;45611;-62
2021/12/05 16:09:27;;;;;;;;;21.50;19.50;;;;;7.07;70.98;99770.00;5076671;28;45382;-62
2021/12/05 16:12:05;;;;;;;;;27.50;27.50;;;;;7.07;70.82;99775.22;5075329;28;66839;-62
2021/12/05 16:14:33;;;;;;;;;21.50;17.75;;;;;7.05;70.57;99784.97;5058233;28;49977;-62
2021/12/05 16:16:58;;;;;;;;;20.50;17.25;;;;;7.06;71.00;99791.84;5040990;28;45307;-61
2021/12/05 16:19:24;;;;;;;;;19.00;13.25;;;;;7.04;70.71;99798.97;5076515;28;45392;-62
2021/12/05 16:21:51;;;;;;;;;17.00;15.00;;;;;7.05;70.85;99799.78;5075915;28;53770;-61
2021/12/05 16:24:17;;;;;;;;;23.25;19.75;;;;;7.04;70.75;99806.81;5041453;28;45551;-61
2021/12/05 16:26:44;;;;;;;;;28.00;25.00;;;;;7.04;70.87;99816.44;5076180;28;45249;-62
2021/12/05 16:29:14;;;;;;;;;28.25;24.50;;;;;7.06;70.95;99819.75;5058915;28;45285;-62
2021/12/05 16:31:44;;;;;;;;;12.00;9.75;;;;;7.05;70.84;99812.84;5079922;28;45208;-61
2021/12/05 16:34:12;;;;;;;;;15.75;15.50;;;;;7.05;70.75;99823.31;5079803;28;46470;-62
2021/12/05 16:36:39;;;;;;;;;15.50;12.00;;;;;7.05;70.49;99824.16;5061675;28;45456;-61
2021/12/05 16:39:10;;;;;;;;;24.75;20.50;;;;;7.04;70.83;99826.88;5079865;28;45411;-61
2021/12/05 16:41:35;;;;;;;;;14.00;13.00;;;;;7.03;70.65;99822.59;5079468;28;45363;-62
2021/12/05 16:44:10;;;;;;;;;12.50;11.25;;;;;7.04;70.44;99837.31;5078727;28;70101;-62
2021/12/05 16:46:50;;;;;;;;;32.25;24.50;;;;;7.03;70.35;99835.66;5079423;28;45429;-62
2021/12/05 16:49:18;;;;;;;;;55.75;42.75;;;;;7.04;70.56;99837.31;5061502;28;45333;-62
2021/12/05 16:51:47;;;;;;;;;15.00;13.25;;;;;7.04;70.12;99842.53;5079416;28;45345;-62
2021/12/05 16:54:24;;;;;;;;;25.00;21.25;;;;;7.01;69.87;99842.81;5079448;28;45416;-62
2021/12/05 16:56:56;;;;;;;;;17.00;16.75;;;;;7.01;69.82;99845.41;5061384;28;45857;-62
2021/12/05 16:59:37;;;;;;;;;18.75;15.00;;;;;6.98;69.63;99849.94;5061252;28;45267;-61
2021/12/05 17:02:12;;;;;;;;;15.00;12.00;;;;;6.98;69.73;99849.94;5079630;28;45406;-62
2021/12/05 17:05:02;;;;;;;;;21.25;18.25;;;;;6.96;69.49;99859.69;5061121;28;46415;-61
2021/12/05 17:07:40;;;;;;;;;27.75;21.50;;;;;6.95;69.36;99863.25;5079026;28;45908;-61
2021/12/05 17:10:09;;;;;;;;;8.50;8.50;;;;;6.93;69.38;99859.13;5061032;28;45383;-62
2021/12/05 17:12:34;;;;;;;;;12.00;10.75;;;;;6.92;69.26;99860.91;5079328;28;45334;-61
2021/12/05 17:15:14;;;;;;;;;14.25;11.75;;;;;6.91;69.27;99866.28;5078132;28;68946;-61
2021/12/05 17:17:40;;;;;;;;;15.00;11.00;;;;;6.89;69.13;99869.00;5079099;28;45405;-62
2021/12/05 17:20:32;;;;;;;;;17.50;15.50;;;;;6.85;69.25;99874.63;5079353;28;45182;-62
2021/12/05 17:22:59;;;;;;;;;16.75;14.25;;;;;6.81;69.13;99880.09;5070469;28;45564;-62